createdAt,value
2023-05-11T00:02:21.313Z,14.64
2023-05-11T00:04:51.324Z,14.97
2023-05-11T00:07:21.313Z,14.85
2023-05-11T00:09:51.298Z,14.86
2023-05-11T00:12:20.831Z,14.68
2023-05-11T00:14:51.008Z,14.90
2023-05-11T00:17:20.903Z,14.79
2023-05-11T00:19:50.850Z,14.96
2023-05-11T00:22:20.523Z,14.88
2023-05-11T00:24:50.329Z,14.69
2023-05-11T00:27:20.147Z,14.83
2023-05-11T00:29:50.237Z,15.03
2023-05-11T00:32:20.118Z,14.82
2023-05-11T00:34:50.044Z,14.73
2023-05-11T00:37:19.994Z,14.71
2023-05-11T00:39:50.088Z,14.66
2023-05-11T00:42:19.614Z,14.66
2023-05-11T00:44:49.438Z,14.52
2023-05-11T00:47:19.318Z,14.58
2023-05-11T00:49:50.775Z,14.62
2023-05-11T00:52:22.473Z,14.59
2023-05-11T00:54:52.485Z,14.77
2023-05-11T00:57:22.805Z,14.73
2023-05-11T00:59:52.617Z,14.74
2023-05-11T01:02:22.704Z,14.84
2023-05-11T01:04:52.911Z,14.98
2023-05-11T01:07:28.665Z,14.97
2023-05-11T01:09:58.983Z,14.78
2023-05-11T01:12:48.224Z,14.62
2023-05-11T01:15:26.610Z,14.71
2023-05-11T01:18:05.690Z,14.89
2023-05-11T01:20:36.485Z,14.65
2023-05-11T01:23:28.688Z,14.60
2023-05-11T01:26:04.265Z,14.40
2023-05-11T01:28:59.106Z,14.59
2023-05-11T01:31:34.762Z,14.60
2023-05-11T01:34:07.604Z,14.64
2023-05-11T01:36:40.792Z,14.64
2023-05-11T01:39:14.010Z,14.62
2023-05-11T01:41:46.719Z,14.73
2023-05-11T01:44:18.343Z,14.73
2023-05-11T01:46:50.129Z,14.61
2023-05-11T01:49:22.654Z,14.63
2023-05-11T01:51:54.517Z,14.77
2023-05-11T01:54:26.455Z,14.75
2023-05-11T01:56:58.099Z,14.71
2023-05-11T01:59:29.166Z,14.82
2023-05-11T02:02:01.165Z,14.91
2023-05-11T02:04:32.741Z,14.91
2023-05-11T02:07:03.392Z,15.04
2023-05-11T02:09:35.157Z,14.58
2023-05-11T02:12:06.839Z,14.86
2023-05-11T02:14:39.131Z,14.69
2023-05-11T02:17:11.074Z,14.82
2023-05-11T02:19:43.305Z,14.78
2023-05-11T02:22:14.431Z,14.59
2023-05-11T02:24:44.375Z,14.53
2023-05-11T02:27:14.209Z,14.78
2023-05-11T02:29:44.332Z,14.70
2023-05-11T02:32:17.231Z,14.88
2023-05-11T02:34:50.136Z,14.73
2023-05-11T02:37:23.439Z,14.66
2023-05-11T02:40:06.121Z,14.44
2023-05-11T02:42:39.301Z,14.76
2023-05-11T02:45:14.512Z,14.70
2023-05-11T02:47:49.868Z,14.66
2023-05-11T02:50:24.413Z,14.70
2023-05-11T02:52:57.642Z,14.51
2023-05-11T02:55:29.932Z,14.51
2023-05-11T02:58:00.038Z,14.54
2023-05-11T03:00:30.617Z,14.62
2023-05-11T03:03:00.616Z,14.51
2023-05-11T03:05:30.962Z,14.51
2023-05-11T03:08:01.861Z,14.59
2023-05-11T03:10:31.803Z,14.59
2023-05-11T03:13:02.469Z,14.59
2023-05-11T03:15:33.615Z,14.46
2023-05-11T03:18:05.678Z,14.48
2023-05-11T03:20:37.942Z,14.48
2023-05-11T03:23:09.395Z,14.31
2023-05-11T03:25:42.036Z,14.34
2023-05-11T03:28:15.670Z,14.61
2023-05-11T03:30:48.938Z,14.58
2023-05-11T03:33:20.973Z,14.57
2023-05-11T03:35:52.232Z,14.54
2023-05-11T03:38:24.981Z,14.52
2023-05-11T03:40:55.753Z,14.60
2023-05-11T03:43:27.865Z,14.43
2023-05-11T03:45:58.868Z,14.52
2023-05-11T03:48:28.831Z,14.62
2023-05-11T03:50:58.993Z,14.55
2023-05-11T03:53:28.946Z,14.47
2023-05-11T03:55:59.184Z,14.74
2023-05-11T03:58:28.848Z,14.86
2023-05-11T04:00:58.817Z,14.84
2023-05-11T04:03:28.778Z,14.62
2023-05-11T04:05:58.719Z,14.36
2023-05-11T04:08:28.383Z,14.86
2023-05-11T04:10:57.887Z,14.68
2023-05-11T04:13:27.751Z,14.83
2023-05-11T04:15:57.616Z,14.76
2023-05-11T04:18:27.522Z,14.90
2023-05-11T04:20:57.973Z,14.75
2023-05-11T04:23:28.414Z,14.80
2023-05-11T04:26:00.680Z,14.88
2023-05-11T04:28:30.663Z,14.67
2023-05-11T04:31:00.597Z,14.67
2023-05-11T04:33:31.400Z,14.84
2023-05-11T04:36:01.303Z,14.83
2023-05-11T04:38:31.883Z,14.98
2023-05-11T04:41:09.264Z,14.79
2023-05-11T04:43:41.380Z,14.81
2023-05-11T04:46:13.418Z,14.85
2023-05-11T04:48:44.016Z,14.91
2023-05-11T04:51:14.084Z,14.97
2023-05-11T04:53:45.950Z,14.87
2023-05-11T04:56:15.672Z,15.02
2023-05-11T04:58:45.478Z,14.82
2023-05-11T05:01:15.329Z,15.13
2023-05-11T05:03:47.023Z,15.13
2023-05-11T05:06:16.894Z,15.02
2023-05-11T05:08:46.995Z,14.98
2023-05-11T05:11:17.800Z,15.05
2023-05-11T05:13:47.992Z,15.15
2023-05-11T05:16:17.576Z,15.21
2023-05-11T05:18:47.788Z,15.52
2023-05-11T05:21:17.927Z,15.37
2023-05-11T05:23:48.044Z,15.34
2023-05-11T05:26:17.838Z,15.34
2023-05-11T05:28:49.251Z,15.55
2023-05-11T05:31:20.845Z,15.33
2023-05-11T05:33:51.421Z,15.57
2023-05-11T05:36:21.061Z,15.24
2023-05-11T05:38:51.223Z,15.49
2023-05-11T05:41:22.310Z,15.49
2023-05-11T05:43:53.958Z,15.22
2023-05-11T05:46:24.165Z,15.32
2023-05-11T05:48:54.391Z,15.32
2023-05-11T05:51:24.268Z,15.77
2023-05-11T05:53:54.765Z,15.69
2023-05-11T05:56:24.690Z,15.50
2023-05-11T05:58:54.498Z,15.68
2023-05-11T06:01:24.482Z,15.68
2023-05-11T06:03:55.812Z,15.88
2023-05-11T06:06:27.154Z,15.96
2023-05-11T06:08:57.273Z,15.97
2023-05-11T06:11:27.349Z,16.40
2023-05-11T06:13:57.198Z,16.40
2023-05-11T06:16:28.152Z,16.32
2023-05-11T06:18:58.119Z,16.26
2023-05-11T06:21:28.086Z,16.26
2023-05-11T06:23:58.292Z,16.44
2023-05-11T06:26:28.772Z,16.39
2023-05-11T06:28:58.631Z,16.51
2023-05-11T06:31:29.389Z,16.94
2023-05-11T06:33:59.356Z,16.80
2023-05-11T06:36:30.298Z,16.58
2023-05-11T06:39:00.221Z,16.52
2023-05-11T06:41:30.065Z,16.87
2023-05-11T06:44:00.646Z,16.82
2023-05-11T06:46:32.484Z,16.99
2023-05-11T06:49:02.891Z,16.95
2023-05-11T06:51:32.975Z,17.11
2023-05-11T06:54:02.818Z,17.22
2023-05-11T06:56:34.038Z,17.29
2023-05-11T06:59:05.181Z,17.11
2023-05-11T07:01:35.440Z,17.11
2023-05-11T07:04:06.005Z,17.03
2023-05-11T07:06:36.084Z,16.90
2023-05-11T07:09:06.425Z,16.90
2023-05-11T07:11:37.277Z,16.80
2023-05-11T07:14:08.348Z,16.89
2023-05-11T07:16:38.521Z,16.89
2023-05-11T07:19:09.683Z,16.62
2023-05-11T07:21:39.856Z,16.71
2023-05-11T07:24:10.664Z,16.59
2023-05-11T07:26:40.885Z,16.85
2023-05-11T07:29:11.656Z,16.78
2023-05-11T07:31:42.902Z,16.72
2023-05-11T07:34:14.839Z,16.89
2023-05-11T07:36:45.095Z,16.78
2023-05-11T07:39:16.547Z,16.61
2023-05-11T07:41:47.127Z,16.72
2023-05-11T07:44:18.466Z,16.70
2023-05-11T07:46:48.424Z,16.82
2023-05-11T07:49:22.945Z,16.59
2023-05-11T07:51:52.166Z,16.34
2023-05-11T07:54:22.134Z,16.20
2023-05-11T07:56:52.088Z,15.91
2023-05-11T07:59:22.281Z,16.08
2023-05-11T08:01:52.549Z,16.16
2023-05-11T08:04:22.456Z,15.97
2023-05-11T08:06:52.668Z,16.17
2023-05-11T08:09:23.814Z,16.20
2023-05-11T08:11:54.003Z,16.20
2023-05-11T08:14:25.168Z,16.34
2023-05-11T08:16:54.759Z,16.28
2023-05-11T08:19:24.921Z,16.47
2023-05-11T08:21:54.776Z,16.35
2023-05-11T08:24:24.885Z,16.21
2023-05-11T08:26:54.709Z,16.21
2023-05-11T08:29:26.437Z,16.68
2023-05-11T08:31:56.668Z,16.68
2023-05-11T08:34:26.426Z,16.88
2023-05-11T08:36:56.415Z,17.05
2023-05-11T08:39:43.605Z,17.06
2023-05-11T08:41:59.698Z,17.11
2023-05-11T08:44:32.867Z,17.28
2023-05-11T08:47:20.940Z,17.28
2023-05-11T08:49:37.260Z,16.97
2023-05-11T08:52:07.958Z,17.11
2023-05-11T08:54:38.278Z,17.31
2023-05-11T08:57:08.742Z,17.46
2023-05-11T08:59:39.273Z,17.74
2023-05-11T09:02:12.151Z,17.74
2023-05-11T09:04:42.987Z,17.77
2023-05-11T09:07:14.947Z,17.70
2023-05-11T09:09:46.184Z,18.20
2023-05-11T09:12:17.912Z,18.07
2023-05-11T09:14:47.790Z,18.12
2023-05-11T09:17:17.649Z,18.19
2023-05-11T09:20:09.167Z,18.10
2023-05-11T09:22:46.847Z,18.35
2023-05-11T09:25:20.017Z,18.39
2023-05-11T09:27:50.492Z,18.40
2023-05-11T09:30:24.327Z,18.66
2023-05-11T09:32:58.948Z,18.30
2023-05-11T09:35:30.669Z,18.45
2023-05-11T09:38:15.083Z,18.37
2023-05-11T09:40:56.131Z,18.57
2023-05-11T09:43:29.406Z,18.71
2023-05-11T09:46:05.003Z,18.90
2023-05-11T09:48:35.368Z,19.12
2023-05-11T09:51:07.280Z,18.92
2023-05-11T09:53:40.922Z,18.98
2023-05-11T09:56:14.064Z,19.01
2023-05-11T09:58:52.455Z,19.13
2023-05-11T10:01:30.884Z,19.39
2023-05-11T10:04:21.004Z,19.37
2023-05-11T10:06:54.379Z,19.72
2023-05-11T10:09:28.579Z,19.72
2023-05-11T10:11:58.686Z,19.90
2023-05-11T10:14:29.676Z,19.89
2023-05-11T10:17:01.476Z,19.85
2023-05-11T10:19:32.800Z,19.60
2023-05-11T10:22:05.749Z,19.87
2023-05-11T10:24:36.621Z,19.90
2023-05-11T10:27:07.056Z,20.05
2023-05-11T10:29:38.163Z,19.87
2023-05-11T10:32:09.282Z,19.65
2023-05-11T10:34:41.121Z,19.59
2023-05-11T10:37:11.587Z,19.72
2023-05-11T10:39:42.546Z,18.92
2023-05-11T10:42:27.167Z,18.92
2023-05-11T10:45:21.401Z,18.88
2023-05-11T10:48:16.475Z,18.76
2023-05-11T10:50:52.045Z,18.55
2023-05-11T10:53:24.721Z,18.18
2023-05-11T10:56:06.467Z,18.54
2023-05-11T10:58:58.213Z,19.08
2023-05-11T11:01:30.942Z,18.88
2023-05-11T11:04:09.416Z,18.65
2023-05-11T11:06:41.981Z,18.70
2023-05-11T11:09:17.231Z,18.70
2023-05-11T11:11:50.622Z,18.93
2023-05-11T11:14:20.743Z,19.06
2023-05-11T11:17:19.355Z,19.55
2023-05-11T11:19:49.563Z,19.53
2023-05-11T11:25:20.766Z,19.30
2023-05-11T11:27:53.976Z,19.58
2023-05-11T11:30:30.523Z,19.58
2023-05-11T11:33:12.601Z,19.42
2023-05-11T11:35:46.057Z,19.40
2023-05-11T11:38:18.999Z,19.48
2023-05-11T11:40:52.508Z,19.38
2023-05-11T11:43:25.356Z,19.13
2023-05-11T11:45:57.504Z,19.13
2023-05-11T11:48:35.812Z,18.91
2023-05-11T11:51:13.848Z,18.83
2023-05-11T11:53:47.013Z,19.10
2023-05-11T11:56:21.489Z,19.07
2023-05-11T11:58:54.344Z,19.10
2023-05-11T12:01:27.554Z,19.07
2023-05-11T12:04:26.197Z,19.20
2023-05-11T12:06:59.511Z,19.12
2023-05-11T12:09:29.855Z,18.61
2023-05-11T12:12:02.107Z,18.61
2023-05-11T12:14:32.434Z,18.60
2023-05-11T12:17:04.029Z,18.69
2023-05-11T12:19:34.163Z,18.11
2023-05-11T12:22:04.116Z,18.11
2023-05-11T12:24:34.497Z,17.60
2023-05-11T12:27:04.951Z,17.60
2023-05-11T12:29:34.604Z,18.11
2023-05-11T12:32:04.157Z,18.01
2023-05-11T12:34:34.204Z,17.54
2023-05-11T12:37:07.111Z,17.54
2023-05-11T12:39:37.578Z,17.51
2023-05-11T12:42:07.803Z,17.57
2023-05-11T12:44:38.144Z,17.97
2023-05-11T12:47:08.098Z,17.99
2023-05-11T12:49:38.281Z,17.84
2023-05-11T12:52:09.173Z,17.72
2023-05-11T12:54:41.748Z,17.64
2023-05-11T12:57:26.084Z,17.78
2023-05-11T13:00:16.548Z,17.68
2023-05-11T13:02:50.001Z,17.68
2023-05-11T13:05:27.360Z,17.83
2023-05-11T13:08:02.153Z,17.84
2023-05-11T13:10:32.725Z,17.84
2023-05-11T13:13:02.914Z,17.59
2023-05-11T13:15:33.264Z,17.59
2023-05-11T13:18:04.159Z,17.58
2023-05-11T13:20:35.596Z,17.75
2023-05-11T13:23:11.404Z,17.67
2023-05-11T13:25:49.720Z,17.46
2023-05-11T13:28:23.330Z,17.55
2023-05-11T13:30:54.925Z,17.99
2023-05-11T13:33:25.130Z,18.05
2023-05-11T13:35:54.957Z,18.36
2023-05-11T13:38:25.091Z,18.36
2023-05-11T13:40:54.885Z,18.19
2023-05-11T13:43:24.989Z,18.43
2023-05-11T13:45:55.777Z,18.34
2023-05-11T13:48:26.084Z,18.50
2023-05-11T13:50:55.959Z,18.08
2023-05-11T13:53:26.216Z,18.11
2023-05-11T13:55:56.105Z,18.59
2023-05-11T13:58:26.703Z,18.62
2023-05-11T14:01:07.302Z,18.62
2023-05-11T14:03:30.015Z,18.83
2023-05-11T14:06:00.012Z,19.38
2023-05-11T14:08:30.189Z,18.96
2023-05-11T14:10:59.713Z,18.60
2023-05-11T14:13:29.865Z,18.89
2023-05-11T14:15:59.714Z,18.66
2023-05-11T14:18:29.535Z,18.87
2023-05-11T14:21:00.630Z,19.12
2023-05-11T14:23:30.781Z,18.86
2023-05-11T14:26:00.636Z,19.47
2023-05-11T14:28:31.200Z,19.60
2023-05-11T14:31:01.201Z,19.57
2023-05-11T14:33:31.112Z,20.55
2023-05-11T14:36:00.970Z,20.55
2023-05-11T14:38:31.728Z,20.39
2023-05-11T14:41:03.050Z,20.29
2023-05-11T14:43:32.854Z,20.29
2023-05-11T14:46:04.325Z,20.21
2023-05-11T14:48:34.142Z,20.21
2023-05-11T14:51:04.896Z,20.18
2023-05-11T14:53:34.776Z,20.31
2023-05-11T14:56:05.047Z,20.29
2023-05-11T14:58:34.887Z,20.58
2023-05-11T15:01:05.052Z,20.46
2023-05-11T15:03:36.860Z,20.46
2023-05-11T15:06:06.855Z,20.63
2023-05-11T15:08:36.450Z,20.74
2023-05-11T15:11:06.249Z,20.66
2023-05-11T15:13:36.062Z,20.37
2023-05-11T15:16:06.298Z,20.15
2023-05-11T15:18:35.778Z,19.85
2023-05-11T15:21:06.076Z,20.16
2023-05-11T15:23:35.905Z,20.10
2023-05-11T15:26:05.895Z,19.71
2023-05-11T15:28:35.426Z,19.84
2023-05-11T15:31:04.973Z,19.74
2023-05-11T15:33:34.823Z,19.75
2023-05-11T15:36:04.816Z,19.80
2023-05-11T15:38:34.323Z,19.84
2023-05-11T15:41:04.150Z,19.50
2023-05-11T15:43:34.488Z,19.31
2023-05-11T15:46:05.004Z,19.51
2023-05-11T15:48:35.001Z,19.27
2023-05-11T15:51:04.683Z,19.28
2023-05-11T15:53:34.835Z,19.41
2023-05-11T15:56:04.705Z,19.23
2023-05-11T15:58:34.324Z,19.57
2023-05-11T16:01:04.247Z,19.47
2023-05-11T16:03:34.157Z,19.19
2023-05-11T16:06:04.280Z,19.34
2023-05-11T16:08:34.149Z,19.72
2023-05-11T16:11:03.989Z,19.58
2023-05-11T16:13:33.813Z,19.59
2023-05-11T16:16:03.642Z,19.47
2023-05-11T16:18:33.587Z,19.45
2023-05-11T16:21:03.984Z,19.50
2023-05-11T16:23:34.080Z,19.56
2023-05-11T16:26:05.655Z,19.31
2023-05-11T16:28:35.231Z,19.52
2023-05-11T16:31:05.129Z,19.67
2023-05-11T16:33:34.968Z,19.29
2023-05-11T16:36:06.435Z,19.47
2023-05-11T16:38:37.220Z,19.45
2023-05-11T16:41:07.376Z,19.23
2023-05-11T16:43:37.680Z,19.31
2023-05-11T16:46:10.268Z,19.54
2023-05-11T16:48:40.192Z,19.54
2023-05-11T16:51:10.417Z,19.59
2023-05-11T16:53:40.330Z,19.24
2023-05-11T16:56:11.778Z,18.43
2023-05-11T16:58:43.332Z,18.43
2023-05-11T17:01:13.969Z,18.18
2023-05-11T17:03:43.860Z,18.39
2023-05-11T17:06:15.741Z,18.13
2023-05-11T17:08:46.913Z,18.31
2023-05-11T17:11:17.295Z,18.31
2023-05-11T17:13:47.146Z,18.21
2023-05-11T17:16:17.791Z,18.04
2023-05-11T17:18:47.486Z,17.65
2023-05-11T17:21:17.653Z,17.64
2023-05-11T17:23:47.622Z,17.69
2023-05-11T17:26:17.466Z,17.96
2023-05-11T17:28:47.891Z,17.88
2023-05-11T17:31:18.082Z,17.32
2023-05-11T17:33:47.810Z,17.64
2023-05-11T17:36:18.609Z,17.40
2023-05-11T17:38:49.622Z,17.46
2023-05-11T17:41:19.415Z,17.35
2023-05-11T17:43:49.225Z,17.32
2023-05-11T17:46:19.243Z,17.49
2023-05-11T17:48:49.370Z,17.61
2023-05-11T17:51:20.237Z,17.49
2023-05-11T17:53:50.240Z,17.57
2023-05-11T17:56:20.190Z,17.46
2023-05-11T17:58:50.162Z,17.48
2023-05-11T18:01:21.552Z,17.31
2023-05-11T18:03:51.499Z,17.14
2023-05-11T18:06:21.562Z,17.22
2023-05-11T18:08:51.910Z,17.25
2023-05-11T18:11:22.002Z,17.37
2023-05-11T18:13:51.559Z,17.30
2023-05-11T18:16:22.204Z,17.15
2023-05-11T18:18:52.513Z,17.46
2023-05-11T18:21:22.407Z,17.25
2023-05-11T18:23:52.308Z,17.15
2023-05-11T18:26:22.172Z,16.86
2023-05-11T18:28:51.791Z,16.86
2023-05-11T18:31:22.491Z,16.73
2023-05-11T18:33:52.370Z,16.65
2023-05-11T18:36:22.173Z,16.59
2023-05-11T18:38:52.224Z,16.65
2023-05-11T18:41:22.609Z,16.74
2023-05-11T18:43:54.297Z,16.80
2023-05-11T18:46:24.157Z,16.98
2023-05-11T18:48:54.354Z,16.86
2023-05-11T18:51:25.194Z,16.69
2023-05-11T18:53:55.342Z,16.69
2023-05-11T18:56:24.832Z,16.56
2023-05-11T18:58:54.613Z,16.75
2023-05-11T19:01:28.158Z,16.93
2023-05-11T19:03:56.098Z,16.90
2023-05-11T19:06:25.628Z,16.57
2023-05-11T19:08:55.843Z,16.65
2023-05-11T19:11:25.677Z,16.59
2023-05-11T19:13:55.615Z,16.46
2023-05-11T19:16:25.453Z,16.39
2023-05-11T19:18:56.779Z,16.39
2023-05-11T19:21:26.701Z,16.39
2023-05-11T19:23:56.533Z,16.30
2023-05-11T19:26:26.419Z,16.21
2023-05-11T19:28:56.252Z,16.38
2023-05-11T19:31:27.916Z,16.55
2023-05-11T19:33:59.323Z,16.31
2023-05-11T19:36:29.703Z,16.44
2023-05-11T19:38:59.604Z,16.34
2023-05-11T19:41:29.410Z,16.25
2023-05-11T19:43:59.313Z,16.21
2023-05-11T19:46:28.969Z,16.25
2023-05-11T19:48:58.833Z,16.38
2023-05-11T19:51:28.674Z,16.03
2023-05-11T19:53:58.747Z,16.26
2023-05-11T19:56:28.677Z,16.06
2023-05-11T19:58:58.744Z,16.14
2023-05-11T20:01:28.648Z,16.03
2023-05-11T20:03:58.658Z,16.06
2023-05-11T20:06:28.883Z,16.23
2023-05-11T20:08:58.751Z,16.21
2023-05-11T20:11:30.492Z,16.04
2023-05-11T20:14:04.645Z,16.09
2023-05-11T20:16:34.825Z,16.45
2023-05-11T20:19:05.437Z,16.35
2023-05-11T20:21:36.248Z,16.27
2023-05-11T20:24:08.162Z,16.36
2023-05-11T20:26:38.204Z,16.24
2023-05-11T20:29:09.646Z,16.38
2023-05-11T20:31:39.771Z,16.27
2023-05-11T20:34:09.590Z,16.27
2023-05-11T20:36:39.455Z,16.38
2023-05-11T20:39:09.336Z,16.28
2023-05-11T20:41:39.158Z,16.28
2023-05-11T20:44:10.392Z,16.01
2023-05-11T20:46:41.397Z,16.19
2023-05-11T20:49:13.093Z,16.04
2023-05-11T20:51:43.619Z,15.92
2023-05-11T20:54:14.428Z,15.93
2023-05-11T20:56:44.650Z,15.93
2023-05-11T21:01:46.827Z,16.14
2023-05-11T21:04:16.478Z,16.02
2023-05-11T21:06:46.697Z,15.75
2023-05-11T21:09:16.952Z,15.61
2023-05-11T21:11:48.248Z,15.78
2023-05-11T21:14:18.083Z,15.78
2023-05-11T21:16:48.128Z,15.66
2023-05-11T21:19:18.441Z,15.89
2023-05-11T21:21:49.593Z,15.69
2023-05-11T21:24:20.055Z,15.90
2023-05-11T21:26:49.936Z,15.81
2023-05-11T21:29:19.826Z,15.79
2023-05-11T21:31:49.626Z,15.65
2023-05-11T21:34:19.424Z,15.89
2023-05-11T21:36:49.680Z,15.85
2023-05-11T21:39:19.470Z,15.76
2023-05-11T21:41:49.581Z,15.85
2023-05-11T21:44:19.075Z,15.78
2023-05-11T21:46:49.025Z,15.54
2023-05-11T21:49:18.860Z,15.31
2023-05-11T21:51:50.086Z,15.29
2023-05-11T21:54:22.643Z,15.17
2023-05-11T21:56:54.017Z,15.49
2023-05-11T21:59:25.472Z,15.39
2023-05-11T22:01:57.197Z,15.39
2023-05-11T22:04:27.475Z,15.44
2023-05-11T22:07:01.739Z,15.36
2023-05-11T22:09:31.942Z,15.32
2023-05-11T22:12:02.897Z,15.33
2023-05-11T22:14:32.773Z,15.34
2023-05-11T22:17:02.597Z,15.23
2023-05-11T22:19:32.137Z,15.31
2023-05-11T22:22:02.246Z,15.29
2023-05-11T22:24:32.056Z,15.04
2023-05-11T22:27:02.261Z,15.17
2023-05-11T22:29:32.144Z,15.17
2023-05-11T22:32:02.074Z,14.97
2023-05-11T22:34:31.898Z,15.07
2023-05-11T22:37:01.715Z,15.00
2023-05-11T22:39:31.780Z,14.95
2023-05-11T22:42:01.935Z,15.17
2023-05-11T22:44:31.750Z,15.17
2023-05-11T22:47:02.383Z,14.94
2023-05-11T22:49:33.422Z,14.93
2023-05-11T22:52:03.306Z,15.27
2023-05-11T22:54:33.118Z,15.12
2023-05-11T22:57:03.555Z,15.04
2023-05-11T22:59:34.605Z,14.93
2023-05-11T23:02:06.570Z,15.00
2023-05-11T23:04:36.193Z,15.04
2023-05-11T23:07:07.800Z,14.91
2023-05-11T23:09:37.706Z,14.85
2023-05-11T23:12:10.027Z,14.70
2023-05-11T23:14:39.908Z,14.75
2023-05-11T23:17:09.740Z,14.71
2023-05-11T23:19:39.747Z,14.60
2023-05-11T23:22:10.605Z,14.74
2023-05-11T23:24:40.400Z,14.66
2023-05-11T23:27:10.202Z,14.62
2023-05-11T23:29:40.195Z,14.64
2023-05-11T23:32:10.171Z,14.65
2023-05-11T23:34:40.058Z,14.70
2023-05-11T23:37:09.878Z,14.64
2023-05-11T23:39:39.855Z,14.64
2023-05-11T23:42:10.485Z,14.68
2023-05-11T23:44:40.988Z,14.68
2023-05-11T23:47:10.921Z,14.71
2023-05-11T23:49:40.935Z,14.70
2023-05-11T23:52:10.431Z,14.55
2023-05-11T23:54:40.568Z,14.42
2023-05-11T23:57:10.480Z,14.33
2023-05-11T23:59:40.279Z,14.44
